Архив погоды в Волжской ГМО

Метеограмма Волжская ГМО
Вторник, 14 Августа
Время местн. Темп Ветер Видим Явления Облачность нижн/средн/верх Атм. давл. Влжн Точка росы ВНГО R Сост. почвы Tg s
Напр Скр Прв ур.ст ур.м изм
15:00 +22.5° З 1 5 50 км - переменная облачность 751 760 +0.2 40% +8.4° 600 м - - - -
12:00 +20.8° З 1 4 50 км - облачно с прояснениями 751 760 +0.4 44% +8.2° 600 м - - - -
09:00 +16.7° З 3 3 50 км - переменная облачность 751 760 +1.1 76% +12.4° - - - - -
06:00 +13.9° С-З 2 3 50 км - переменная облачность 750 759 +1 80% +10.5° - - Сухая (без трещин) - -
03:00 +15.9° З,С-З 2 5 10 км - ясно 749 758 +0.7 69% +10.3° более 2.5 км - - - -
00:00 +17.7° З,С-З 2 5 10 км - ясно 748 757 +0.1 59% +9.5° более 2.5 км - - - -
Понедельник, 13 Августа
Время местн. Темп Ветер Видим Явления Облачность нижн/средн/верх Атм. давл. Влжн Точка росы ВНГО R Сост. почвы Tg s
Напр Скр Прв ур.ст ур.м изм
21:00 +19.9° З,С-З 1 4 10 км - переменная облачность 748 757 +0.6 52% +9.8° - - - - -
18:00 +22.1° З 3 6 50 км - преимущественно облачно 747 756 -0.4 43% +8.8° 600 м - - - -
15:00 +23.1° З 3 6 50 км - облачно с прояснениями 748 757 -0.2 41% +9.2° 600 м - - - -
12:00 +22.7° З 2 5 50 км - переменная облачность 748 757 -0.6 42% +9.2° 600 м - - - -
09:00 +19.6° З 1 3 50 км - переменная облачность 748 757 0 64% +12.5° более 2.5 км - - - -
06:00 +18.4° З 2 4 50 км - облачно 748 757 +0.2 71% +13.1° 1 км - Сухая (без трещин) - -
03:00 +19.4° З 2 3 10 км - облачно 748 757 0 55% +10.2° 600 м - - - -
00:00 +18.1° Ю 1 2 10 км - переменная облачность 748 757 -0.6 59% +10° более 2.5 км - - - -
Воскресенье, 12 Августа
Время местн. Темп Ветер Видим Явления Облачность нижн/средн/верх Атм. давл. Влжн Точка росы ВНГО R Сост. почвы Tg s
Напр Скр Прв ур.ст ур.м изм
21:00 +21.5° Ю,Ю-В 1 1 10 км - переменная облачность 749 758 -0.8 58% +12.9° более 2.5 км - - - -
18:00 +27° штиль 0 0 50 км - облачно с прояснениями 750 759 -1.2 43% +13.5° более 2.5 км - - - -
15:00 +27.5° З 1 3 50 км - облачно с прояснениями 751 760 -1.4 46% +15° 1 км - - - -
12:00 +25.8° З,С-З 1 2 50 км - переменная облачность 752 761 -0.8 52% +15.1° 1 км - - - -
09:00 +21.7° З,С-З 1 1 50 км - ясно 753 762 -0.7 64% +14.6° более 2.5 км - - - -
06:00 +16.5° З,С-З 2 2 50 км - ясно 754 763 -0.5 82% +13.4° более 2.5 км - Влажная (без луж) - -
03:00 +18.9° З 1 2 10 км - ясно 754 763 -0.5 78% +15° более 2.5 км - - - -
00:00 +19.1° З 1 2 10 км - ясно 755 764 -0.2 80% +15.6° более 2.5 км - - - -
Суббота, 11 Августа
Время местн. Темп Ветер Видим Явления Облачность нижн/средн/верх Атм. давл. Влжн Точка росы ВНГО R Сост. почвы Tg s
Напр Скр Прв ур.ст ур.м изм
21:00 +22.7° С,С-З 1 2 10 км - переменная облачность 755 764 +0.1 71% +17.2° более 2.5 км - - - -
18:00 +26.4° З,С-З 2 4 50 км - переменная облачность 755 764 -1.1 54% +16.2° более 2.5 км - - - -
15:00 +27.6° З 1 5 50 км - переменная облачность 756 765 -0.9 45% +14.7° - - - - -
12:00 +26.3° С,С-З 2 5 50 км - переменная облачность 757 766 -0.6 55% +16.4° - - - - -